Solicitamos su permiso para obtener datos estadísticos de su navegación en esta web, en cumplimiento del Real Decreto-ley 13/2012. Si continúa navegando consideramos que acepta el uso de cookies. OK | Más información

MAPA DE AEROPUERTO

INFORMACIÓN METAR y TAF

METAR FOR LEVC
ADDS - METARS form results

(0347 UTC 18 January 2018)
Data provider http://aviationweather.gov/adds/metars/
 
METAR text: LEVC 180330Z VRB01KT 9999 FEW021 07/03 Q1026 NOSIG
Conditions at: LEVC (VALENCIA (CIV/MI, ES) observed 0330 UTC 18 January 2018
Temperature: 7.0°C (45°F)
Dewpoint: 3.0°C (37°F) [RH = 76%]
Pressure (altimeter): 30.30 inches Hg (1026.0 mb)
Winds: variable direction winds at 1 MPH (1 knots; 0.5 m/s)
Visibility: 6 or more miles (10+ km)
Ceiling: at least 12,000 feet AGL
Clouds: few clouds at 2100 feet AGL
Weather: no significant weather observed at this time

METAR text: LEVC 180300Z 28003KT 210V320 9999 FEW021 08/01 Q1026 NOSIG
Conditions at: LEVC (VALENCIA (CIV/MI, ES) observed 0300 UTC 18 January 2018
Temperature: 8.0°C (46°F)
Dewpoint: 1.0°C (34°F) [RH = 61%]
Pressure (altimeter): 30.30 inches Hg (1026.0 mb)
Winds: from the W (280 degrees) at 3 MPH (3 knots; 1.6 m/s)
Visibility: 6 or more miles (10+ km)
Ceiling: at least 12,000 feet AGL
Clouds: few clouds at 2100 feet AGL
Weather: no significant weather observed at this time

Forecast for: LEVC (VALENCIA (CIV/MI, ES)
Text: TAF LEVC 172300Z 1800/1824 VRB03KT 9999 FEW020 TX17/1813Z TN06/1807Z
Forecast period: 0000 UTC 18 January 2018 to 0000 UTC 19 January 2018
Forecast type: FROM: standard forecast or significant change
Winds: variable direction winds at 3 MPH (3 knots; 1.6 m/s)
Visibility: 6 or more miles (10+ km)
Clouds: few clouds at 2000 feet AGL
Weather: no significant weather forecast for this period
Text: TEMPO 1800/1806 31007KT
Forecast period: 0000 to 0600 UTC 18 January 2018
Forecast type: TEMPORARY: The following changes expected for less than half the time period
Winds: from the NW (310 degrees) at 8 MPH (7 knots; 3.6 m/s)
Weather: no significant weather forecast for this period
Text: PROB40
Forecast period: 0200 to 1000 UTC 18 January 2018
Forecast type: TEMPORARY: The following changes expected for less than half the time period
Ceiling: 2000 feet AGL
Clouds: broken clouds at 2000 feet AGL
Weather: no significant weather forecast for this period
Text: TEMPO 1802/1810 BKN020
Forecast period: 1500 to 1800 UTC 18 January 2018
Forecast type: TEMPORARY: The following changes expected for less than half the time period
Winds: from the SE (130 degrees) at 8 MPH (7 knots; 3.6 m/s)
Weather: no significant weather forecast for this period